createdAt,value
2022-10-29T19:42:07.191Z,100639.97
2022-10-29T19:43:08.697Z,100641.94
2022-10-29T19:44:10.217Z,100641.44
2022-10-29T19:45:11.675Z,100635.22
2022-10-29T19:46:14.137Z,100631.28
2022-10-29T19:47:15.620Z,100651.38
2022-10-29T19:48:17.104Z,100648.53
2022-10-29T19:49:18.568Z,100633.25
2022-10-29T19:50:20.065Z,100644.59
2022-10-29T19:51:21.704Z,100642.88
2022-10-29T19:52:23.279Z,100641.22
2022-10-29T19:53:24.949Z,100640.38
2022-10-29T19:54:26.407Z,100629.88
2022-10-29T19:55:27.984Z,100633.88
2022-10-29T19:56:30.589Z,100657.16
2022-10-29T19:57:32.227Z,100648.16
2022-10-29T19:58:33.850Z,100632.84
2022-10-29T19:59:35.345Z,100642.16
2022-10-29T20:00:37.146Z,100652.66
2022-10-29T20:01:40.365Z,100640.50
2022-10-29T20:02:41.941Z,100641.84
2022-10-29T20:03:43.689Z,100637.84
2022-10-29T20:04:45.209Z,100642.38
2022-10-29T20:05:46.794Z,100640.38
2022-10-29T20:06:48.796Z,100635.53
2022-10-29T20:07:53.530Z,100640.38
2022-10-29T20:08:55.077Z,100643.53
2022-10-29T20:09:56.630Z,100631.38
2022-10-29T20:10:58.818Z,100635.88
2022-10-29T20:12:03.708Z,100643.53
2022-10-29T20:13:05.230Z,100631.69
2022-10-29T20:15:45.569Z,100628.84
2022-10-29T20:16:47.231Z,100638.50
2022-10-29T20:17:48.691Z,100622.69
2022-10-29T20:18:50.304Z,100631.19
2022-10-29T20:19:51.740Z,100631.47
2022-10-29T20:20:54.435Z,100627.28
2022-10-29T20:21:56.119Z,100625.28
2022-10-29T20:22:59.462Z,100632.94
2022-10-29T20:24:01.518Z,100635.56
2022-10-29T20:25:03.097Z,100625.94
2022-10-29T20:26:04.569Z,100638.09
2022-10-29T20:27:06.160Z,100642.91
2022-10-29T20:28:08.011Z,100625.09
2022-10-29T20:29:09.544Z,100624.69
2022-10-29T20:30:11.376Z,100630.34
2022-10-29T20:31:23.875Z,100636.81
2022-10-29T20:32:25.382Z,100636.53
2022-10-29T20:33:26.877Z,100636.22
2022-10-29T20:34:28.363Z,100624.06
2022-10-29T20:35:29.849Z,100631.41
2022-10-29T20:36:32.028Z,100625.75
2022-10-29T20:37:33.786Z,100616.09
2022-10-29T20:38:35.292Z,100626.25
2022-10-29T20:39:36.846Z,100634.75
2022-10-29T20:40:38.407Z,100635.06
2022-10-29T20:41:43.499Z,100625.75
2022-10-29T20:42:45.063Z,100624.06
2022-10-29T20:43:47.269Z,100635.38
2022-10-29T20:44:48.808Z,100641.03
2022-10-29T20:45:50.371Z,100642.50
2022-10-29T20:46:51.920Z,100634.31
2022-10-29T20:47:53.482Z,100631.81
2022-10-29T20:48:55.000Z,100630.97
2022-10-29T20:49:56.464Z,100637.78
2022-10-29T20:50:58.072Z,100641.25
2022-10-29T20:51:59.716Z,100636.75
2022-10-29T20:53:01.344Z,100643.56
2022-10-29T20:54:04.457Z,100639.06
2022-10-29T20:55:07.836Z,100637.91
2022-10-29T20:56:13.140Z,100631.41
2022-10-29T20:57:17.673Z,100644.41
2022-10-29T20:58:19.596Z,100637.91
2022-10-29T20:59:21.941Z,100637.91
2022-10-29T21:00:23.677Z,100633.94
2022-10-29T21:01:25.814Z,100650.91
2022-10-29T21:02:27.630Z,100633.94
2022-10-29T21:03:29.217Z,100638.75
2022-10-29T21:04:30.836Z,100641.56
2022-10-29T21:05:32.301Z,100644.09
2022-10-29T21:06:33.796Z,100640.09
2022-10-29T21:07:35.248Z,100640.94
2022-10-29T21:08:36.815Z,100640.09
2022-10-29T21:09:38.254Z,100646.28
2022-10-29T21:10:39.754Z,100645.44
2022-10-29T21:11:41.375Z,100640.63
2022-10-29T21:12:42.884Z,100641.78
2022-10-29T21:13:44.412Z,100645.44
2022-10-29T21:14:45.959Z,100638.94
2022-10-29T21:15:47.406Z,100636.13
2022-10-29T21:16:48.910Z,100638.09
2022-10-29T21:17:50.425Z,100640.94
2022-10-29T21:18:52.456Z,100638.94
2022-10-29T21:19:53.967Z,100638.94
2022-10-29T21:20:55.438Z,100638.94
2022-10-29T21:21:57.134Z,100633.28
2022-10-29T21:22:59.065Z,100643.75
2022-10-29T21:24:00.856Z,100641.25
2022-10-29T21:25:02.292Z,100642.94
2022-10-29T21:26:04.516Z,100646.09
2022-10-29T21:27:05.979Z,100642.94
2022-10-29T21:28:07.458Z,100647.75
2022-10-29T21:29:08.985Z,100648.59
2022-10-29T21:30:10.810Z,100638.09
2022-10-29T21:31:12.336Z,100637.28
2022-10-29T21:32:16.924Z,100644.59
2022-10-29T21:33:18.865Z,100648.59
2022-10-29T21:34:20.348Z,100637.28
2022-10-29T21:35:21.843Z,100640.09
2022-10-29T21:36:23.448Z,100641.78
2022-10-29T21:37:24.910Z,100638.94
2022-10-29T21:38:28.249Z,100638.94
2022-10-29T21:39:29.912Z,100639.78
2022-10-29T21:40:31.448Z,100640.94
2022-10-29T21:41:32.876Z,100645.75
2022-10-29T21:42:34.358Z,100637.28
2022-10-29T21:43:35.872Z,100636.13
2022-10-29T21:44:37.437Z,100647.44
2022-10-29T21:45:39.214Z,100642.94
2022-10-29T21:46:40.658Z,100642.94
2022-10-29T21:47:42.162Z,100636.44
2022-10-29T21:48:43.630Z,100641.25
2022-10-29T21:49:51.779Z,100640.44
2022-10-29T21:51:00.876Z,100640.75
2022-10-29T21:52:02.362Z,100636.25
2022-10-29T21:53:04.240Z,100643.06
2022-10-29T21:54:05.862Z,100643.06
2022-10-29T21:55:07.577Z,100640.22
2022-10-29T21:56:10.060Z,100637.41
2022-10-29T21:57:11.557Z,100645.03
2022-10-29T21:58:12.988Z,100642.22
2022-10-29T21:59:14.500Z,100638.84
2022-10-29T22:00:16.229Z,100635.50
2022-10-29T22:01:17.790Z,100638.31
2022-10-29T22:02:19.555Z,100637.50
2022-10-29T22:03:21.066Z,100633.50
2022-10-29T22:04:22.550Z,100637.50
2022-10-29T22:05:24.006Z,100645.66
2022-10-29T22:06:28.648Z,100627.84
2022-10-29T22:07:30.115Z,100640.31
2022-10-29T22:08:31.606Z,100634.66
2022-10-29T22:09:33.420Z,100638.31
2022-10-29T22:10:34.999Z,100631.84
2022-10-29T22:11:36.483Z,100632.97
2022-10-29T22:12:37.930Z,100626.19
2022-10-29T22:13:39.498Z,100629.84
2022-10-29T22:14:40.999Z,100631.00
2022-10-29T22:15:44.481Z,100628.50
2022-10-29T22:16:45.983Z,100625.66
2022-10-29T22:17:47.445Z,100627.66
2022-10-29T22:18:49.965Z,100634.16
2022-10-29T22:19:51.827Z,100632.47
2022-10-29T22:21:06.537Z,100620.31
2022-10-29T22:22:08.091Z,100632.78
2022-10-29T22:23:09.607Z,100624.63
2022-10-29T22:24:11.144Z,100626.63
2022-10-29T22:25:12.601Z,100620.97
2022-10-29T22:26:14.605Z,100618.13
2022-10-29T22:27:16.044Z,100630.28
2022-10-29T22:28:17.549Z,100622.97
2022-10-29T22:29:19.085Z,100620.13
2022-10-29T22:30:20.565Z,100620.13
2022-10-29T22:31:22.323Z,100628.59
2022-10-29T22:32:23.806Z,100625.22
2022-10-29T22:33:25.240Z,100632.59
2022-10-29T22:34:26.779Z,100614.75
2022-10-29T22:35:28.206Z,100613.09
2022-10-29T22:36:31.849Z,100620.72
2022-10-29T22:37:33.323Z,100619.91
2022-10-29T22:38:34.860Z,100619.91
2022-10-29T22:39:36.365Z,100624.72
2022-10-29T22:40:40.961Z,100615.41
2022-10-29T22:41:42.394Z,100623.03
2022-10-29T22:42:43.876Z,100617.38
2022-10-29T22:43:45.338Z,100617.38
2022-10-29T22:44:46.825Z,100620.22
2022-10-29T22:45:48.345Z,100610.06
2022-10-29T22:46:49.801Z,100608.38
2022-10-29T22:47:53.407Z,100608.38
2022-10-29T22:48:54.880Z,100612.06
2022-10-29T22:49:59.009Z,100610.38
2022-10-29T22:51:01.648Z,100612.38
2022-10-29T22:52:03.136Z,100611.53
2022-10-29T22:53:04.644Z,100610.69
2022-10-29T22:54:06.098Z,100615.53
2022-10-29T22:55:07.833Z,100613.00
2022-10-29T22:56:19.929Z,100615.84
2022-10-29T22:57:21.367Z,100616.16
2022-10-29T22:58:22.935Z,100615.31
2022-10-29T22:59:24.499Z,100613.63
2022-10-29T23:00:25.980Z,100614.47
2022-10-29T23:01:28.351Z,100617.59
2022-10-29T23:02:30.195Z,100615.94
2022-10-29T23:03:31.808Z,100614.25
2022-10-29T23:04:33.299Z,100617.06
2022-10-29T23:05:34.763Z,100615.94
2022-10-29T23:06:36.879Z,100617.06
2022-10-29T23:07:38.477Z,100618.22
2022-10-29T23:08:39.957Z,100615.41
2022-10-29T23:09:41.511Z,100621.38
2022-10-29T23:10:43.022Z,100614.88
2022-10-29T23:11:44.514Z,100612.06
2022-10-29T23:12:46.009Z,100616.88
2022-10-29T23:13:52.141Z,100609.56
2022-10-29T23:14:53.715Z,100611.53
2022-10-29T23:15:55.196Z,100616.69
2022-10-29T23:16:56.841Z,100624.00
2022-10-29T23:17:58.591Z,100621.50
2022-10-29T23:19:01.475Z,100618.66
2022-10-29T23:20:03.225Z,100623.47
2022-10-29T23:21:05.389Z,100624.31
2022-10-29T23:22:07.166Z,100621.81
2022-10-29T23:23:08.730Z,100628.31
2022-10-29T23:24:10.224Z,100625.75
2022-10-29T23:25:11.762Z,100622.94
2022-10-29T23:26:14.935Z,100635.41
2022-10-29T23:27:16.426Z,100637.38
2022-10-29T23:28:17.945Z,100632.88
2022-10-29T23:29:19.380Z,100621.56
2022-10-29T23:30:20.880Z,100626.41
2022-10-29T23:31:23.004Z,100636.03
2022-10-29T23:32:24.502Z,100621.91
2022-10-29T23:33:25.964Z,100615.28
2022-10-29T23:34:27.479Z,100633.53
2022-10-29T23:35:29.093Z,100633.53
2022-10-29T23:36:30.662Z,100623.69
2022-10-29T23:37:32.171Z,100637.81
2022-10-29T23:38:33.857Z,100624.31
2022-10-29T23:39:35.336Z,100623.47
2022-10-29T23:40:36.931Z,100620.94
2022-10-29T23:41:38.361Z,100628.56
2022-10-29T23:42:39.864Z,100625.75
2022-10-29T23:43:41.341Z,100614.22
2022-10-29T23:44:42.794Z,100623.84
2022-10-29T23:45:44.326Z,100627.81
2022-10-29T23:46:45.789Z,100631.81
2022-10-29T23:47:47.273Z,100618.81
2022-10-29T23:48:48.745Z,100621.66
2022-10-29T23:49:50.484Z,100631.28
2022-10-29T23:50:52.146Z,100621.13
2022-10-29T23:51:53.643Z,100629.88
2022-10-29T23:52:55.180Z,100617.22
2022-10-29T23:53:57.714Z,100615.56
2022-10-29T23:54:59.355Z,100619.84
2022-10-29T23:56:00.884Z,100614.19
2022-10-29T23:57:02.393Z,100623.00
2022-10-29T23:58:04.013Z,100621.63
2022-10-29T23:59:05.473Z,100624.78
